createdAt,value
2022-09-03T00:03:59.987Z,16.90
2022-09-03T00:09:05.005Z,16.80
2022-09-03T00:14:18.076Z,16.80
2022-09-03T00:19:26.159Z,16.70
2022-09-03T00:24:34.388Z,16.70
2022-09-03T00:29:48.986Z,16.80
2022-09-03T00:35:03.218Z,16.90
2022-09-03T00:40:18.017Z,16.90
2022-09-03T00:45:27.169Z,17.00
2022-09-03T00:50:46.741Z,16.90
2022-09-03T00:56:33.011Z,16.90
2022-09-03T01:01:46.098Z,16.80
2022-09-03T01:07:03.868Z,16.90
2022-09-03T01:12:14.801Z,16.90
2022-09-03T01:17:21.163Z,17.00
2022-09-03T01:22:32.371Z,17.00
2022-09-03T01:27:58.912Z,17.10
2022-09-03T01:33:08.559Z,17.00
2022-09-03T01:38:16.844Z,17.10
2022-09-03T01:43:51.867Z,17.00
2022-09-03T01:49:11.521Z,17.00
2022-09-03T01:54:20.929Z,17.00
2022-09-03T01:59:36.316Z,16.90
2022-09-03T02:04:38.584Z,16.80
2022-09-03T02:09:40.784Z,16.80
2022-09-03T02:14:43.921Z,16.80
2022-09-03T02:19:46.124Z,16.70
2022-09-03T02:24:48.303Z,16.70
2022-09-03T02:29:50.846Z,16.70
2022-09-03T02:34:53.148Z,16.60
2022-09-03T02:39:55.677Z,16.60
2022-09-03T02:45:08.332Z,16.60
2022-09-03T02:50:10.751Z,16.60
2022-09-03T02:55:13.039Z,16.70
2022-09-03T03:00:15.645Z,16.70
2022-09-03T03:05:26.720Z,16.80
2022-09-03T03:10:28.961Z,16.80
2022-09-03T03:15:31.140Z,16.80
2022-09-03T03:20:33.957Z,16.70
2022-09-03T03:25:38.532Z,16.80
2022-09-03T03:30:42.930Z,16.80
2022-09-03T03:35:45.273Z,16.70
2022-09-03T03:40:47.495Z,16.80
2022-09-03T03:45:59.872Z,16.80
2022-09-03T03:51:05.083Z,16.70
2022-09-03T03:56:10.373Z,16.70
2022-09-03T04:01:15.482Z,16.70
2022-09-03T04:06:20.030Z,16.70
2022-09-03T04:11:24.230Z,16.60
2022-09-03T04:16:27.783Z,16.60
2022-09-03T04:21:31.350Z,16.60
2022-09-03T04:26:34.642Z,16.50
2022-09-03T04:31:38.592Z,16.40
2022-09-03T04:36:41.140Z,16.40
2022-09-03T04:41:43.353Z,16.40
2022-09-03T04:46:47.964Z,16.40
2022-09-03T04:51:50.254Z,16.30
2022-09-03T04:56:52.497Z,16.30
2022-09-03T05:01:56.461Z,16.30
2022-09-03T05:06:58.880Z,16.30
2022-09-03T05:12:01.179Z,16.30
2022-09-03T05:17:03.392Z,16.30
2022-09-03T05:22:05.774Z,16.30
2022-09-03T05:27:08.087Z,16.30
2022-09-03T05:32:10.555Z,16.20
2022-09-03T05:37:12.826Z,16.20
2022-09-03T05:42:15.284Z,16.10
2022-09-03T05:47:17.421Z,16.00
2022-09-03T05:52:21.766Z,16.00
2022-09-03T05:57:24.936Z,16.10
2022-09-03T06:02:27.214Z,16.10
2022-09-03T06:07:29.586Z,16.20
2022-09-03T06:12:31.721Z,16.30
2022-09-03T06:17:34.013Z,16.40
2022-09-03T06:22:36.283Z,16.40
2022-09-03T06:27:38.492Z,16.50
2022-09-03T06:32:47.615Z,16.50
2022-09-03T06:37:49.818Z,16.60
2022-09-03T06:43:00.954Z,16.70
2022-09-03T06:48:03.464Z,16.70
2022-09-03T06:53:06.217Z,16.80
2022-09-03T06:58:09.257Z,17.00
2022-09-03T07:03:11.427Z,17.00
2022-09-03T07:08:13.639Z,17.10
2022-09-03T07:13:16.048Z,17.10
2022-09-03T07:18:18.325Z,17.20
2022-09-03T07:23:20.480Z,17.30
2022-09-03T07:28:24.908Z,17.30
2022-09-03T07:33:33.527Z,17.40
2022-09-03T07:38:37.129Z,17.50
2022-09-03T07:43:49.724Z,17.60
2022-09-03T07:48:53.718Z,17.60
2022-09-03T07:54:02.324Z,17.70
2022-09-03T07:59:05.523Z,17.80
2022-09-03T08:04:09.482Z,17.80
2022-09-03T08:09:13.922Z,18.00
2022-09-03T08:14:16.640Z,18.10
2022-09-03T08:19:19.368Z,18.20
2022-09-03T08:24:24.876Z,18.20
2022-09-03T08:29:27.683Z,18.30
2022-09-03T08:34:29.887Z,18.30
2022-09-03T08:39:32.285Z,18.30
2022-09-03T08:44:47.390Z,18.40
2022-09-03T08:49:55.873Z,18.50
2022-09-03T08:55:42.777Z,18.60
2022-09-03T09:01:12.083Z,18.70
2022-09-03T09:06:23.400Z,18.80
2022-09-03T09:11:50.937Z,18.90
2022-09-03T09:17:08.525Z,19.00
2022-09-03T09:22:29.962Z,19.10
2022-09-03T09:27:33.112Z,19.10
2022-09-03T09:32:38.477Z,19.20
2022-09-03T09:37:55.557Z,19.50
2022-09-03T09:43:07.166Z,19.60
2022-09-03T09:48:34.149Z,19.60
2022-09-03T09:53:36.729Z,19.40
2022-09-03T09:58:38.976Z,19.50
2022-09-03T10:04:09.545Z,19.60
2022-09-03T10:09:23.462Z,19.60
2022-09-03T10:14:42.101Z,19.90
2022-09-03T10:20:17.262Z,20.10
2022-09-03T10:25:22.354Z,19.90
2022-09-03T10:30:24.801Z,19.70
2022-09-03T10:35:45.874Z,19.70
2022-09-03T10:41:30.134Z,19.80
2022-09-03T10:47:04.466Z,19.80
2022-09-03T10:52:30.986Z,20.00
2022-09-03T10:57:41.798Z,20.40
2022-09-03T11:02:56.083Z,20.70
2022-09-03T11:08:38.246Z,20.70
2022-09-03T11:13:57.405Z,20.90
2022-09-03T11:19:11.421Z,21.10
2022-09-03T11:24:23.592Z,21.30
2022-09-03T11:29:58.042Z,21.30
2022-09-03T11:35:00.251Z,21.20
2022-09-03T11:40:20.785Z,21.00
2022-09-03T11:45:30.220Z,20.80
2022-09-03T11:50:34.226Z,20.70
2022-09-03T11:55:59.352Z,20.70
2022-09-03T12:01:05.729Z,20.70
2022-09-03T12:06:26.441Z,20.80
2022-09-03T12:11:46.781Z,20.80
2022-09-03T12:17:14.071Z,20.90
2022-09-03T12:22:18.474Z,21.10
2022-09-03T12:27:27.725Z,20.90
2022-09-03T12:32:34.946Z,20.70
2022-09-03T12:48:47.103Z,20.40
2022-09-03T12:53:50.811Z,20.60
2022-09-03T12:59:01.612Z,20.80
2022-09-03T13:04:10.882Z,20.90
2022-09-03T13:09:14.792Z,21.20
2022-09-03T13:14:19.140Z,21.80
2022-09-03T13:19:48.380Z,21.90
2022-09-03T13:24:53.547Z,21.90
2022-09-03T13:30:09.162Z,21.70
2022-09-03T13:35:32.412Z,21.50
2022-09-03T13:40:49.936Z,21.60
2022-09-03T13:46:11.524Z,21.80
2022-09-03T13:51:25.966Z,22.00
2022-09-03T13:56:35.748Z,22.20
2022-09-03T14:01:43.740Z,22.40
2022-09-03T14:06:59.591Z,22.30
2022-09-03T14:12:06.345Z,22.10
2022-09-03T14:17:50.436Z,22.00
2022-09-03T14:22:59.745Z,22.00
2022-09-03T14:28:20.656Z,21.80
2022-09-03T14:33:39.178Z,21.60
2022-09-03T14:38:58.358Z,21.60
2022-09-03T14:44:09.754Z,21.60
2022-09-03T14:49:36.844Z,21.80
2022-09-03T14:55:06.659Z,22.10
2022-09-03T15:00:19.723Z,22.20
2022-09-03T15:05:41.268Z,22.00
2022-09-03T15:10:56.535Z,21.80
2022-09-03T15:16:01.905Z,21.60
2022-09-03T15:21:22.754Z,21.60
2022-09-03T15:26:39.479Z,21.50
2022-09-03T15:32:06.057Z,21.60
2022-09-03T15:37:18.784Z,21.60
2022-09-03T15:42:28.702Z,21.80
2022-09-03T15:47:51.683Z,22.00
2022-09-03T15:53:19.436Z,22.20
2022-09-03T15:58:58.844Z,22.30
2022-09-03T16:04:26.857Z,22.50
2022-09-03T16:10:01.959Z,22.80
2022-09-03T16:15:18.660Z,22.70
2022-09-03T16:20:23.284Z,22.10
2022-09-03T16:25:45.170Z,21.80
2022-09-03T16:30:47.268Z,21.70
2022-09-03T16:36:11.154Z,21.50
2022-09-03T16:41:28.068Z,21.20
2022-09-03T16:46:47.602Z,21.20
2022-09-03T16:52:16.237Z,21.10
2022-09-03T16:57:46.175Z,21.00
2022-09-03T17:03:06.367Z,21.00
2022-09-03T17:08:44.401Z,20.90
2022-09-03T17:14:21.165Z,20.80
2022-09-03T17:19:39.275Z,20.80
2022-09-03T17:24:51.271Z,20.90
2022-09-03T17:30:40.789Z,21.00
2022-09-03T17:36:16.158Z,20.80
2022-09-03T17:41:44.264Z,20.80
2022-09-03T17:47:08.094Z,20.60
2022-09-03T17:52:21.017Z,20.50
2022-09-03T17:57:42.688Z,20.30
2022-09-03T18:03:15.952Z,20.20
2022-09-03T18:08:29.999Z,20.20
2022-09-03T18:13:49.619Z,20.30
2022-09-03T18:18:53.475Z,20.30
2022-09-03T18:24:19.765Z,20.30
2022-09-03T18:29:54.525Z,20.10
2022-09-03T18:35:15.406Z,20.00
2022-09-03T18:40:41.962Z,19.90
2022-09-03T18:52:02.646Z,19.70
2022-09-03T18:57:35.626Z,19.60
2022-09-03T19:03:08.458Z,19.60
2022-09-03T19:08:49.052Z,19.50
2022-09-03T19:14:10.489Z,19.50
2022-09-03T19:19:37.393Z,19.40
2022-09-03T19:24:58.055Z,19.40
2022-09-03T19:30:51.455Z,19.40
2022-09-03T19:36:24.709Z,19.40
2022-09-03T19:41:59.686Z,19.30
2022-09-03T19:47:22.691Z,19.30
2022-09-03T19:53:03.595Z,19.30
2022-09-03T19:58:42.106Z,19.30
2022-09-03T20:04:03.616Z,19.30
2022-09-03T20:09:28.981Z,19.30
2022-09-03T20:14:33.404Z,19.20
2022-09-03T20:19:47.745Z,19.10
2022-09-03T20:25:10.997Z,19.00
2022-09-03T20:30:23.166Z,19.00
2022-09-03T20:35:34.367Z,18.90
2022-09-03T20:41:00.030Z,18.90
2022-09-03T20:46:41.459Z,18.80
2022-09-03T20:51:55.281Z,18.70
2022-09-03T20:57:31.949Z,18.70
2022-09-03T21:02:52.586Z,18.70
2022-09-03T21:08:03.960Z,18.60
2022-09-03T21:13:25.042Z,18.60
2022-09-03T21:18:47.697Z,18.60
2022-09-03T21:24:00.901Z,18.50
2022-09-03T21:29:33.718Z,18.60
2022-09-03T21:35:04.018Z,18.60
2022-09-03T21:40:09.918Z,18.60
2022-09-03T21:45:50.273Z,18.60
2022-09-03T21:51:00.951Z,18.60
2022-09-03T21:56:35.288Z,18.50
2022-09-03T22:02:08.962Z,18.60
2022-09-03T22:07:41.757Z,18.60
2022-09-03T22:13:28.942Z,18.60
2022-09-03T22:18:36.555Z,18.60
2022-09-03T22:24:14.745Z,18.70
2022-09-03T22:29:54.455Z,18.70
2022-09-03T22:35:23.024Z,18.70
2022-09-03T22:40:45.457Z,18.80
2022-09-03T22:46:14.423Z,18.80
2022-09-03T22:51:21.490Z,18.80
2022-09-03T22:56:24.290Z,18.90
2022-09-03T23:01:30.648Z,18.90
2022-09-03T23:06:39.833Z,18.80
2022-09-03T23:11:53.140Z,18.70
2022-09-03T23:17:00.920Z,18.70
2022-09-03T23:22:07.758Z,18.70
2022-09-03T23:27:20.614Z,18.70
2022-09-03T23:32:23.332Z,18.70
2022-09-03T23:37:43.567Z,18.70
2022-09-03T23:42:59.906Z,18.70
2022-09-03T23:48:21.956Z,18.70
2022-09-03T23:53:40.444Z,18.70
2022-09-03T23:58:51.361Z,18.70
